createdAt,value
2022-11-17T00:02:21.655Z,94707.09
2022-11-17T00:04:48.044Z,94698.94
2022-11-17T00:07:14.381Z,94706.03
2022-11-17T00:09:40.703Z,94684.81
2022-11-17T00:12:07.008Z,94689.28
2022-11-17T00:14:33.312Z,94685.44
2022-11-17T00:16:59.608Z,94660.53
2022-11-17T00:19:25.913Z,94654.66
2022-11-17T00:21:52.199Z,94646.59
2022-11-17T00:24:18.503Z,94645.31
2022-11-17T00:26:44.810Z,94639.91
2022-11-17T00:29:11.111Z,94624.25
2022-11-17T00:31:37.397Z,94622.19
2022-11-17T00:34:03.754Z,94620.75
2022-11-17T00:36:30.046Z,94623.88
2022-11-17T00:38:56.348Z,94594.56
2022-11-17T00:41:22.661Z,94611.75
2022-11-17T00:43:48.955Z,94603.03
2022-11-17T00:46:15.254Z,94585.06
2022-11-17T00:48:41.557Z,94569.59
2022-11-17T00:51:07.848Z,94586.59
2022-11-17T00:53:34.506Z,94586.03
2022-11-17T00:56:01.012Z,94587.84
2022-11-17T00:58:27.314Z,94588.13
2022-11-17T01:00:53.620Z,94590.28
2022-11-17T01:03:19.948Z,94599.13
2022-11-17T01:05:46.239Z,94589.03
2022-11-17T01:08:12.530Z,94599.00
2022-11-17T01:10:38.847Z,94602.00
2022-11-17T01:13:05.140Z,94605.38
2022-11-17T01:15:31.432Z,94615.72
2022-11-17T01:17:57.738Z,94628.72
2022-11-17T01:20:24.032Z,94626.44
2022-11-17T01:22:50.325Z,94608.78
2022-11-17T01:25:16.653Z,94608.78
2022-11-17T01:27:42.950Z,94601.69
2022-11-17T01:30:09.243Z,94611.66
2022-11-17T01:32:35.557Z,94615.50
2022-11-17T01:35:01.860Z,94623.56
2022-11-17T01:37:28.156Z,94628.84
2022-11-17T01:39:54.508Z,94624.38
2022-11-17T01:42:20.813Z,94614.78
2022-11-17T01:44:47.120Z,94619.88
2022-11-17T01:47:13.441Z,94604.25
2022-11-17T01:49:39.739Z,94607.81
2022-11-17T01:52:06.041Z,94613.88
2022-11-17T01:54:32.350Z,94619.72
2022-11-17T01:56:58.647Z,94615.75
2022-11-17T01:59:24.942Z,94613.94
2022-11-17T02:01:51.297Z,94626.13
2022-11-17T02:04:17.632Z,94628.00
2022-11-17T02:06:43.918Z,94621.69
2022-11-17T02:09:10.237Z,94602.53
2022-11-17T02:11:36.525Z,94599.75
2022-11-17T02:14:02.819Z,94583.31
2022-11-17T02:16:29.134Z,94571.91
2022-11-17T02:18:55.429Z,94586.75
2022-11-17T02:21:21.726Z,94582.91
2022-11-17T02:23:48.036Z,94578.03
2022-11-17T02:26:14.647Z,94569.84
2022-11-17T02:28:40.946Z,94574.28
2022-11-17T02:31:07.276Z,94556.81
2022-11-17T02:33:33.968Z,94547.66
2022-11-17T02:36:00.544Z,94545.47
2022-11-17T02:38:26.864Z,94554.88
2022-11-17T02:40:53.155Z,94536.41
2022-11-17T02:43:19.487Z,94550.47
2022-11-17T02:45:45.857Z,94556.25
2022-11-17T02:48:12.168Z,94540.78
2022-11-17T02:50:38.463Z,94541.53
2022-11-17T02:53:04.767Z,94546.19
2022-11-17T02:55:31.055Z,94537.34
2022-11-17T02:57:57.357Z,94539.94
2022-11-17T03:00:23.660Z,94544.84
2022-11-17T03:02:49.952Z,94559.84
2022-11-17T03:05:16.252Z,94551.31
2022-11-17T03:07:42.567Z,94541.22
2022-11-17T03:10:08.868Z,94545.66
2022-11-17T03:12:35.167Z,94542.38
2022-11-17T03:15:01.568Z,94546.78
2022-11-17T03:17:27.866Z,94557.94
2022-11-17T03:19:54.165Z,94537.00
2022-11-17T03:22:20.471Z,94565.53
2022-11-17T03:24:46.755Z,94554.88
2022-11-17T03:27:13.038Z,94557.16
2022-11-17T03:29:39.343Z,94558.69
2022-11-17T03:32:05.628Z,94550.81
2022-11-17T03:34:31.928Z,94562.84
2022-11-17T03:36:58.237Z,94543.44
2022-11-17T03:39:24.530Z,94534.31
2022-11-17T03:41:50.832Z,94536.13
2022-11-17T03:44:17.165Z,94521.72
2022-11-17T03:46:43.464Z,94524.50
2022-11-17T03:49:09.789Z,94536.41
2022-11-17T03:51:36.157Z,94542.94
2022-11-17T03:54:02.455Z,94538.75
2022-11-17T03:56:28.743Z,94541.81
2022-11-17T03:58:55.046Z,94535.09
2022-11-17T04:01:21.366Z,94529.13
2022-11-17T04:03:47.700Z,94543.63
2022-11-17T04:06:14.008Z,94549.97
2022-11-17T04:08:40.312Z,94539.06
2022-11-17T04:11:06.612Z,94547.22
2022-11-17T04:13:33.091Z,94545.13
2022-11-17T04:15:59.605Z,94529.72
2022-11-17T04:18:25.960Z,94541.19
2022-11-17T04:20:52.259Z,94554.16
2022-11-17T04:23:18.547Z,94549.53
2022-11-17T04:25:44.834Z,94548.38
2022-11-17T04:28:11.147Z,94549.34
2022-11-17T04:30:37.449Z,94548.59
2022-11-17T04:33:03.759Z,94558.47
2022-11-17T04:35:30.090Z,94552.25
2022-11-17T04:37:56.398Z,94556.16
2022-11-17T04:40:22.696Z,94565.09
2022-11-17T04:42:49.010Z,94571.47
2022-11-17T04:45:15.309Z,94555.69
2022-11-17T04:47:41.602Z,94541.63
2022-11-17T04:50:07.910Z,94549.72
2022-11-17T04:52:34.203Z,94538.69
2022-11-17T04:55:00.497Z,94549.72
2022-11-17T04:57:26.857Z,94551.25
2022-11-17T04:59:53.153Z,94549.72
2022-11-17T05:02:19.484Z,94559.72
2022-11-17T05:04:45.851Z,94551.38
2022-11-17T05:07:12.186Z,94555.31
2022-11-17T05:09:38.501Z,94540.50
2022-11-17T05:12:04.798Z,94543.41
2022-11-17T05:14:31.091Z,94535.53
2022-11-17T05:16:57.386Z,94534.88
2022-11-17T05:19:23.708Z,94529.28
2022-11-17T05:21:50.001Z,94533.13
2022-11-17T05:24:16.276Z,94550.72
2022-11-17T05:26:42.593Z,94531.09
2022-11-17T05:29:08.884Z,94533.78
2022-11-17T05:31:35.188Z,94532.53
2022-11-17T05:34:01.504Z,94542.75
2022-11-17T05:36:27.804Z,94542.47
2022-11-17T05:38:54.082Z,94546.44
2022-11-17T05:41:21.769Z,94545.19
2022-11-17T05:43:48.050Z,94541.13
2022-11-17T05:46:14.354Z,94535.69
2022-11-17T05:48:40.670Z,94546.84
2022-11-17T05:51:06.980Z,94544.56
2022-11-17T05:53:33.585Z,94544.78
2022-11-17T05:56:00.097Z,94554.69
2022-11-17T05:58:26.410Z,94548.84
2022-11-17T06:00:52.712Z,94548.25
2022-11-17T06:03:19.075Z,94558.72
2022-11-17T06:05:45.376Z,94550.25
2022-11-17T06:08:11.679Z,94563.25
2022-11-17T06:10:37.991Z,94569.59
2022-11-17T06:13:04.280Z,94565.34
2022-11-17T06:15:30.580Z,94581.81
2022-11-17T06:17:56.896Z,94587.88
2022-11-17T06:20:23.188Z,94586.34
2022-11-17T06:22:49.484Z,94597.41
2022-11-17T06:25:15.815Z,94595.38
2022-11-17T06:27:42.115Z,94608.75
2022-11-17T06:30:08.562Z,94617.31
2022-11-17T06:32:34.879Z,94613.16
2022-11-17T06:35:01.174Z,94615.38
2022-11-17T06:37:27.473Z,94620.28
2022-11-17T06:39:53.788Z,94620.28
2022-11-17T06:42:20.065Z,94620.50
2022-11-17T06:44:46.366Z,94623.94
2022-11-17T06:47:12.679Z,94629.63
2022-11-17T06:49:38.971Z,94616.25
2022-11-17T06:52:05.270Z,94635.97
2022-11-17T06:54:31.628Z,94634.81
2022-11-17T06:56:57.962Z,94636.84
2022-11-17T06:59:24.333Z,94634.06
2022-11-17T07:01:50.716Z,94642.59
2022-11-17T07:04:17.065Z,94649.44
2022-11-17T07:06:43.403Z,94638.75
2022-11-17T07:09:09.802Z,94648.66
2022-11-17T07:11:36.144Z,94653.38
2022-11-17T07:14:02.542Z,94649.72
2022-11-17T07:16:28.905Z,94658.00
2022-11-17T07:18:55.255Z,94654.44
2022-11-17T07:21:21.647Z,94661.09
2022-11-17T07:23:48.089Z,94642.16
2022-11-17T07:26:14.538Z,94661.69
2022-11-17T07:28:40.914Z,94657.72
2022-11-17T07:31:07.279Z,94663.88
2022-11-17T07:33:33.840Z,94656.56
2022-11-17T07:36:00.361Z,94663.59
2022-11-17T07:38:26.749Z,94647.13
2022-11-17T07:40:53.137Z,94663.88
2022-11-17T07:43:19.504Z,94662.63
2022-11-17T07:45:45.888Z,94656.28
2022-11-17T07:48:12.230Z,94663.50
2022-11-17T07:50:38.590Z,94659.84
2022-11-17T07:53:04.951Z,94671.47
2022-11-17T07:55:31.281Z,94674.56
2022-11-17T07:57:57.613Z,94671.00
2022-11-17T08:00:23.971Z,94682.06
2022-11-17T08:02:50.362Z,94669.81
2022-11-17T08:05:16.712Z,94671.19
2022-11-17T08:07:43.101Z,94683.00
2022-11-17T08:10:09.456Z,94675.50
2022-11-17T08:12:35.805Z,94682.72
2022-11-17T08:15:02.230Z,94693.09
2022-11-17T08:17:28.620Z,94694.97
2022-11-17T08:19:54.980Z,94699.47
2022-11-17T08:22:21.347Z,94705.97
2022-11-17T08:24:47.710Z,94703.28
2022-11-17T08:27:14.060Z,94713.16
2022-11-17T08:29:40.417Z,94717.38
2022-11-17T08:32:06.746Z,94724.13
2022-11-17T08:34:33.140Z,94723.53
2022-11-17T08:36:59.506Z,94730.75
2022-11-17T08:39:25.843Z,94723.16
2022-11-17T08:41:52.179Z,94733.09
2022-11-17T08:44:18.530Z,94727.19
2022-11-17T08:46:44.884Z,94727.19
2022-11-17T08:49:11.256Z,94739.16
2022-11-17T08:51:37.653Z,94748.00
2022-11-17T08:54:04.017Z,94739.06
2022-11-17T08:56:30.357Z,94753.03
2022-11-17T08:58:56.725Z,94748.09
2022-11-17T09:01:23.101Z,94755.34
2022-11-17T09:03:49.532Z,94759.19
2022-11-17T09:06:15.862Z,94769.03
2022-11-17T09:08:47.016Z,94768.06
2022-11-17T09:11:13.828Z,94755.44
2022-11-17T09:13:40.159Z,94755.13
2022-11-17T09:16:06.466Z,94758.63
2022-11-17T09:18:32.834Z,94753.59
2022-11-17T09:20:59.351Z,94754.75
2022-11-17T09:23:25.700Z,94753.59
2022-11-17T09:25:52.059Z,94748.09
2022-11-17T09:28:18.391Z,94742.22
2022-11-17T09:30:44.697Z,94751.94
2022-11-17T09:33:11.011Z,94752.44
2022-11-17T09:35:37.347Z,94760.72
2022-11-17T09:38:03.716Z,94743.38
2022-11-17T09:40:36.336Z,94740.81
2022-11-17T09:43:04.097Z,94741.31
2022-11-17T09:45:30.410Z,94725.69
2022-11-17T09:48:12.394Z,94725.94
2022-11-17T09:50:43.101Z,94735.22
2022-11-17T09:53:09.420Z,94737.75
2022-11-17T09:55:35.777Z,94741.66
2022-11-17T09:58:02.105Z,94731.94
2022-11-17T10:00:28.486Z,94712.09
2022-11-17T10:02:54.853Z,94713.72
2022-11-17T10:05:21.218Z,94711.31
2022-11-17T10:07:47.535Z,94692.53
2022-11-17T10:10:13.884Z,94703.50
2022-11-17T10:12:40.258Z,94719.38
2022-11-17T10:15:06.625Z,94714.56
2022-11-17T10:17:32.980Z,94703.50
2022-11-17T10:19:59.329Z,94712.25
2022-11-17T10:22:25.674Z,94706.22
2022-11-17T10:24:52.044Z,94714.53
2022-11-17T10:27:18.447Z,94711.75
2022-11-17T10:29:44.768Z,94701.28
2022-11-17T10:32:11.130Z,94699.69
2022-11-17T10:34:41.485Z,94690.22
2022-11-17T10:37:08.168Z,94699.84
2022-11-17T10:39:34.470Z,94684.28
2022-11-17T10:42:00.795Z,94685.31
2022-11-17T10:44:27.148Z,94680.59
2022-11-17T10:46:57.571Z,94682.50
2022-11-17T10:49:26.993Z,94690.63
2022-11-17T10:51:53.293Z,94685.88
2022-11-17T10:54:19.593Z,94684.63
2022-11-17T10:56:45.963Z,94692.75
2022-11-17T10:59:12.269Z,94698.84
2022-11-17T11:01:38.672Z,94707.91
2022-11-17T11:04:05.066Z,94713.38
2022-11-17T11:06:31.445Z,94739.28
2022-11-17T11:08:57.808Z,94723.66
2022-11-17T11:11:24.183Z,94711.84
2022-11-17T11:13:50.538Z,94703.91
2022-11-17T11:16:17.080Z,94697.22
2022-11-17T11:18:43.590Z,94696.69
2022-11-17T11:21:09.895Z,94696.88
2022-11-17T11:23:36.232Z,94691.66
2022-11-17T11:26:02.615Z,94693.00
2022-11-17T11:28:28.922Z,94678.41
2022-11-17T11:30:55.259Z,94688.97
2022-11-17T11:33:21.673Z,94681.78
2022-11-17T11:35:47.980Z,94657.88
2022-11-17T11:38:14.320Z,94668.69
2022-11-17T11:40:40.683Z,94667.44
2022-11-17T11:43:07.027Z,94667.16
2022-11-17T11:45:33.382Z,94667.22
2022-11-17T11:47:59.754Z,94663.88
2022-11-17T11:50:26.053Z,94670.09
2022-11-17T11:52:52.367Z,94676.94
2022-11-17T11:55:19.205Z,94672.03
2022-11-17T11:57:46.121Z,94670.38
2022-11-17T12:00:14.152Z,94678.91
2022-11-17T12:02:41.059Z,94678.75
2022-11-17T12:05:07.506Z,94674.28
2022-11-17T12:07:33.865Z,94678.44
2022-11-17T12:10:00.240Z,94664.84
2022-11-17T12:12:26.598Z,94677.59
2022-11-17T12:14:53.006Z,94661.00
2022-11-17T12:17:19.461Z,94693.59
2022-11-17T12:19:45.829Z,94697.91
2022-11-17T12:22:12.161Z,94713.31
2022-11-17T12:24:38.492Z,94711.78
2022-11-17T12:27:04.830Z,94700.81
2022-11-17T12:29:34.115Z,94684.63
2022-11-17T12:32:00.816Z,94670.25
2022-11-17T12:34:27.667Z,94655.28
2022-11-17T12:36:54.129Z,94645.09
2022-11-17T12:39:21.830Z,94645.19
2022-11-17T12:41:48.376Z,94651.78
2022-11-17T12:44:15.206Z,94653.53
2022-11-17T12:46:41.635Z,94660.41
2022-11-17T12:49:08.112Z,94643.88
2022-11-17T12:51:34.537Z,94644.13
2022-11-17T12:54:00.891Z,94659.25
2022-11-17T12:56:28.708Z,94664.34
2022-11-17T12:58:55.091Z,94659.88
2022-11-17T13:01:24.572Z,94658.06
2022-11-17T13:03:50.965Z,94650.53
2022-11-17T13:06:34.896Z,94659.94
2022-11-17T13:09:02.584Z,94649.91
2022-11-17T13:11:28.969Z,94637.56
2022-11-17T13:13:55.357Z,94637.19
2022-11-17T13:16:21.778Z,94636.78
2022-11-17T13:18:48.321Z,94630.50
2022-11-17T13:21:14.657Z,94625.53
2022-11-17T13:23:40.975Z,94627.41
2022-11-17T13:26:07.286Z,94631.13
2022-11-17T13:28:33.638Z,94626.84
2022-11-17T13:31:00.062Z,94625.00
2022-11-17T13:33:26.428Z,94621.44
2022-11-17T13:35:52.773Z,94621.78
2022-11-17T13:38:19.182Z,94612.91
2022-11-17T13:40:45.494Z,94608.72
2022-11-17T13:43:11.845Z,94601.16
2022-11-17T13:45:38.259Z,94606.88
2022-11-17T13:48:04.603Z,94603.81
2022-11-17T13:50:30.971Z,94606.22
2022-11-17T13:52:57.359Z,94602.91
2022-11-17T13:55:23.763Z,94603.63
2022-11-17T13:57:50.133Z,94603.63
2022-11-17T14:00:16.522Z,94598.91
2022-11-17T14:02:42.867Z,94585.41
2022-11-17T14:05:09.200Z,94589.66
2022-11-17T14:07:35.628Z,94596.50
2022-11-17T14:10:02.030Z,94604.59
2022-11-17T14:12:28.401Z,94587.13
2022-11-17T14:14:55.812Z,94596.00
2022-11-17T14:17:22.130Z,94581.13
2022-11-17T14:19:48.470Z,94578.66
2022-11-17T14:22:22.276Z,94580.88
2022-11-17T14:24:48.823Z,94578.91
2022-11-17T14:27:15.211Z,94574.88
2022-11-17T14:29:41.556Z,94572.56
2022-11-17T14:32:07.873Z,94566.13
2022-11-17T14:34:34.350Z,94552.13
2022-11-17T14:37:00.658Z,94560.00
2022-11-17T14:39:26.969Z,94552.38
2022-11-17T14:41:54.231Z,94559.16
2022-11-17T14:44:20.836Z,94565.94
2022-11-17T14:46:47.195Z,94567.28
2022-11-17T14:49:13.864Z,94572.16
2022-11-17T14:51:40.434Z,94555.31
2022-11-17T14:54:06.793Z,94537.91
2022-11-17T14:56:33.238Z,94529.44
2022-11-17T14:58:59.595Z,94516.03
2022-11-17T15:01:25.961Z,94503.59
2022-11-17T15:03:52.360Z,94485.78
2022-11-17T15:06:20.358Z,94480.69
2022-11-17T15:08:46.956Z,94483.91
2022-11-17T15:11:13.577Z,94478.69
2022-11-17T15:13:40.426Z,94475.38
2022-11-17T15:16:06.931Z,94475.28
2022-11-17T15:18:33.275Z,94473.38
2022-11-17T15:21:00.208Z,94473.81
2022-11-17T15:23:27.844Z,94469.78
2022-11-17T15:25:55.633Z,94459.28
2022-11-17T15:28:24.039Z,94459.84
2022-11-17T15:30:51.471Z,94448.09
2022-11-17T15:33:18.692Z,94430.72
2022-11-17T15:35:45.473Z,94438.41
2022-11-17T15:38:13.118Z,94440.16
2022-11-17T15:40:39.702Z,94440.44
2022-11-17T15:48:25.315Z,94430.78
2022-11-17T15:56:34.521Z,94425.97
2022-11-17T15:59:12.398Z,94408.81
2022-11-17T16:01:38.953Z,94401.53
2022-11-17T16:04:05.351Z,94403.72
2022-11-17T16:06:31.755Z,94415.41
2022-11-17T16:08:58.393Z,94400.44
2022-11-17T16:11:27.565Z,94395.94
2022-11-17T16:16:34.328Z,94398.03
2022-11-17T16:19:00.810Z,94405.84
2022-11-17T16:21:27.149Z,94397.72
2022-11-17T16:23:57.540Z,94404.59
2022-11-17T16:26:33.992Z,94412.00
2022-11-17T16:29:02.577Z,94400.03
2022-11-17T16:31:28.920Z,94411.75
2022-11-17T16:33:55.317Z,94418.63
2022-11-17T16:36:21.706Z,94405.66
2022-11-17T16:39:01.608Z,94410.72
2022-11-17T16:44:19.822Z,94415.38
2022-11-17T16:46:52.580Z,94424.97
2022-11-17T16:51:59.186Z,94428.09
2022-11-17T16:54:25.838Z,94431.06
2022-11-17T16:56:59.748Z,94444.53
2022-11-17T16:59:26.216Z,94444.31
2022-11-17T17:01:52.561Z,94433.44
2022-11-17T17:04:23.304Z,94446.59
2022-11-17T17:06:55.205Z,94452.44
2022-11-17T17:09:26.520Z,94463.84
2022-11-17T17:11:54.382Z,94479.53
2022-11-17T17:14:28.315Z,94488.59
2022-11-17T17:16:58.104Z,94493.50
2022-11-17T17:19:24.517Z,94499.16
2022-11-17T17:21:51.394Z,94502.69
2022-11-17T17:24:25.319Z,94515.41
2022-11-17T17:26:57.292Z,94507.16
2022-11-17T17:29:32.658Z,94541.38
2022-11-17T17:34:39.516Z,94552.75
2022-11-17T17:42:38.433Z,94572.25
2022-11-17T17:45:18.992Z,94577.75
2022-11-17T17:58:51.519Z,94585.34
2022-11-17T18:20:46.278Z,94599.56
2022-11-17T18:26:13.461Z,94616.81
2022-11-17T18:28:45.617Z,94619.41
2022-11-17T18:31:14.253Z,94619.78
2022-11-17T18:33:40.616Z,94623.38
2022-11-17T18:36:07.157Z,94623.75
2022-11-17T18:38:33.519Z,94634.44
2022-11-17T18:40:59.876Z,94632.28
2022-11-17T18:43:26.380Z,94630.78
2022-11-17T18:45:53.523Z,94622.31
2022-11-17T18:48:26.590Z,94617.22
2022-11-17T18:53:33.425Z,94631.25
2022-11-17T18:55:59.806Z,94631.25
2022-11-17T18:58:26.194Z,94634.22
2022-11-17T19:00:52.613Z,94642.91
2022-11-17T19:03:19.526Z,94666.16
2022-11-17T19:05:46.150Z,94658.84
2022-11-17T19:08:12.547Z,94655.22
2022-11-17T19:10:38.990Z,94651.66
2022-11-17T19:13:07.793Z,94637.06
2022-11-17T19:15:34.159Z,94640.81
2022-11-17T19:18:00.589Z,94639.16
2022-11-17T19:20:26.975Z,94642.72
2022-11-17T19:22:56.185Z,94646.31
2022-11-17T19:25:22.582Z,94644.53
2022-11-17T19:27:48.950Z,94658.44
2022-11-17T19:30:15.294Z,94658.41
2022-11-17T19:32:41.661Z,94657.88
2022-11-17T19:35:15.730Z,94662.56
2022-11-17T19:37:44.776Z,94669.69
2022-11-17T19:40:11.088Z,94673.53
2022-11-17T19:42:37.444Z,94671.03
2022-11-17T19:45:03.820Z,94659.72
2022-11-17T19:47:30.126Z,94673.19
2022-11-17T19:49:56.475Z,94676.91
2022-11-17T19:52:22.843Z,94682.47
2022-11-17T19:54:49.161Z,94683.72
2022-11-17T19:57:15.464Z,94676.94
2022-11-17T19:59:41.793Z,94673.94
2022-11-17T20:02:08.145Z,94652.66
2022-11-17T20:04:34.501Z,94656.09
2022-11-17T20:07:00.958Z,94660.28
2022-11-17T20:09:27.373Z,94660.66
2022-11-17T20:11:53.701Z,94664.09
2022-11-17T20:14:20.113Z,94665.09
2022-11-17T20:16:46.473Z,94665.31
2022-11-17T20:19:12.782Z,94667.66
2022-11-17T20:21:39.133Z,94661.56
2022-11-17T20:24:05.449Z,94664.25
2022-11-17T20:26:31.915Z,94678.88
2022-11-17T20:28:58.307Z,94674.59
2022-11-17T20:31:24.642Z,94672.41
2022-11-17T20:33:50.961Z,94679.63
2022-11-17T20:36:17.348Z,94672.84
2022-11-17T20:38:43.705Z,94672.38
2022-11-17T20:41:10.067Z,94668.53
2022-11-17T20:43:36.393Z,94659.81
2022-11-17T20:46:02.700Z,94662.03
2022-11-17T20:48:29.041Z,94655.84
2022-11-17T20:50:55.424Z,94638.53
2022-11-17T20:53:21.769Z,94642.41
2022-11-17T20:55:48.232Z,94641.81
2022-11-17T20:58:14.710Z,94639.78
2022-11-17T21:00:41.115Z,94659.81
2022-11-17T21:03:07.550Z,94647.09
2022-11-17T21:05:33.972Z,94649.91
2022-11-17T21:08:00.312Z,94657.44
2022-11-17T21:10:26.670Z,94643.75
2022-11-17T21:12:52.999Z,94646.78
2022-11-17T21:15:19.356Z,94649.88
2022-11-17T21:17:45.727Z,94644.47
2022-11-17T21:20:12.160Z,94638.19
2022-11-17T21:22:38.508Z,94629.31
2022-11-17T21:25:04.870Z,94632.03
2022-11-17T21:27:31.200Z,94638.53
2022-11-17T21:29:57.530Z,94631.16
2022-11-17T21:32:23.842Z,94620.69
2022-11-17T21:34:50.166Z,94624.31
2022-11-17T21:37:16.503Z,94621.00
2022-11-17T21:39:42.812Z,94627.66
2022-11-17T21:42:09.142Z,94629.81
2022-11-17T21:44:35.492Z,94627.66
2022-11-17T21:47:01.854Z,94617.28
2022-11-17T21:49:28.238Z,94621.59
2022-11-17T21:51:54.551Z,94623.41
2022-11-17T21:54:20.912Z,94630.19
2022-11-17T21:56:47.328Z,94633.56
2022-11-17T21:59:13.755Z,94632.31
2022-11-17T22:01:40.288Z,94638.25
2022-11-17T22:04:06.688Z,94639.38
2022-11-17T22:06:33.032Z,94647.91
2022-11-17T22:08:59.387Z,94646.66
2022-11-17T22:11:25.713Z,94649.09
2022-11-17T22:13:52.026Z,94649.31
2022-11-17T22:16:18.377Z,94648.31
2022-11-17T22:18:44.697Z,94652.47
2022-11-17T22:21:11.037Z,94655.50
2022-11-17T22:23:37.390Z,94655.25
2022-11-17T22:26:03.823Z,94659.69
2022-11-17T22:28:30.136Z,94662.19
2022-11-17T22:30:56.484Z,94663.31
2022-11-17T22:33:22.818Z,94660.47
2022-11-17T22:35:49.159Z,94662.69
2022-11-17T22:38:15.510Z,94660.09
2022-11-17T22:40:41.908Z,94666.56
2022-11-17T22:43:14.453Z,94663.97
2022-11-17T22:45:41.406Z,94667.22
2022-11-17T22:48:07.774Z,94669.25
2022-11-17T22:50:34.127Z,94677.47
2022-11-17T22:53:00.440Z,94683.03
2022-11-17T22:55:26.764Z,94670.00
2022-11-17T22:57:53.114Z,94678.41
2022-11-17T23:00:19.425Z,94678.97
2022-11-17T23:02:45.788Z,94685.09
2022-11-17T23:05:12.214Z,94681.25
2022-11-17T23:07:38.586Z,94677.19
2022-11-17T23:10:04.999Z,94682.59
2022-11-17T23:12:31.343Z,94687.25
2022-11-17T23:14:57.689Z,94696.66
2022-11-17T23:17:24.020Z,94714.59
2022-11-17T23:19:50.355Z,94709.66
2022-11-17T23:22:16.726Z,94704.38
2022-11-17T23:24:43.101Z,94697.47
2022-11-17T23:27:09.456Z,94687.75
2022-11-17T23:29:35.766Z,94682.03
2022-11-17T23:32:02.159Z,94683.69
2022-11-17T23:34:28.507Z,94683.06
2022-11-17T23:36:57.345Z,94673.38
2022-11-17T23:39:27.287Z,94657.00
2022-11-17T23:41:53.635Z,94675.69
2022-11-17T23:44:19.960Z,94683.25
2022-11-17T23:46:46.333Z,94696.38
2022-11-17T23:49:12.714Z,94694.84
2022-11-17T23:51:39.025Z,94695.75
2022-11-17T23:54:05.346Z,94689.75
2022-11-17T23:56:31.689Z,94695.75
2022-11-17T23:58:58.038Z,94696.53
